Highland Haven, Texas
Current Conditions -  °F | °C
As of 9:15 PM on Tuesday 25 Nov 2014 (Local Time) from KDZB Reporting Station
Clear Clear  
Wind Chill: 44°   Ceiling: Unl
Heat Index: 44°   Visibility: 10mi
Dew Point: 31°   Wind: 3mph
Humidity: 59%   Direction: 200°SSW
Pressure: 30.2"   Gusts: NA
Location:  30.5925°N, 98.2219°W
Report Text: KDZB 260315Z AUTO 20003KT 10SM CLR 07/M01 A3020 RMK AO2 T00681007
Loading
Personal Weather Stations






























Interactive Weather Map New forecast layout! Learn more

10-Day Weather Forecast

Advertisements
Track Severe Weather on mobile